Time;durP1;ratioP1;P1;durP2;ratioP2;P2;SDS_P1;SDS_P2;PMS_P1;PMS_P2;Temp;Humidity;BMP_temperature;BMP_pressure;BME280_temperature;BME280_humidity;BME280_pressure;Samples;Min_cycle;Max_cycle;Signal;HPM_P1;HPM_P2
2022/03/13 00:02:26;;;;;;;3.47;1.00;;;27.00;14.40;;;;;;5024353;28;20078;-62
2022/03/13 00:04:56;;;;;;;2.85;0.93;;;27.10;13.90;;;;;;5040391;28;20076;-61
2022/03/13 00:07:25;;;;;;;2.47;0.73;;;27.10;13.80;;;;;;5039647;28;20672;-61
2022/03/13 00:09:52;;;;;;;4.90;0.82;;;27.10;14.00;;;;;;5061176;28;20092;-60
2022/03/13 00:12:30;;;;;;;1.80;0.80;;;27.00;14.20;;;;;;5042601;28;20105;-65
2022/03/13 00:15:00;;;;;;;7.80;1.30;;;26.90;14.30;;;;;;5040150;28;20078;-60
2022/03/13 00:17:30;;;;;;;3.05;0.90;;;26.70;14.50;;;;;;5058686;28;20213;-60
2022/03/13 00:20:01;;;;;;;3.65;1.10;;;26.70;14.50;;;;;;5039664;28;20155;-61
2022/03/13 00:22:29;;;;;;;4.35;1.02;;;26.60;15.10;;;;;;5040490;28;20072;-60
2022/03/13 00:24:56;;;;;;;6.68;1.02;;;26.60;14.80;;;;;;5040548;28;20172;-61
2022/03/13 00:27:23;;;;;;;5.68;1.20;;;26.50;15.40;;;;;;5040520;28;20132;-62
2022/03/13 00:29:49;;;;;;;7.40;1.05;;;26.50;15.20;;;;;;5038237;28;20429;-60
2022/03/13 00:32:17;;;;;;;6.20;1.15;;;26.40;15.00;;;;;;5039158;28;20072;-61
2022/03/13 00:34:43;;;;;;;3.03;1.23;;;26.40;15.10;;;;;;5044094;28;20650;-61
2022/03/13 00:37:10;;;;;;;2.92;1.30;;;26.30;14.90;;;;;;5040129;28;20112;-61
2022/03/13 00:39:39;;;;;;;1.63;0.90;;;26.20;14.80;;;;;;5056943;28;20065;-62
2022/03/13 00:42:06;;;;;;;2.85;1.13;;;26.10;14.90;;;;;;5040410;28;20179;-60
2022/03/13 00:44:34;;;;;;;1.98;1.00;;;26.00;14.90;;;;;;5039764;28;20078;-62
2022/03/13 00:47:00;;;;;;;5.38;1.10;;;25.80;14.80;;;;;;5039258;28;20089;-61
2022/03/13 00:49:26;;;;;;;4.05;1.40;;;25.80;15.30;;;;;;5039670;28;20594;-59
2022/03/13 00:51:53;;;;;;;3.00;0.90;;;25.70;15.30;;;;;;5022765;28;20085;-61
2022/03/13 00:54:19;;;;;;;2.58;1.13;;;25.60;15.30;;;;;;5039176;28;20197;-60
2022/03/13 00:56:46;;;;;;;3.88;1.73;;;25.50;15.60;;;;;;5043138;28;20083;-60
2022/03/13 00:59:12;;;;;;;6.55;1.25;;;25.40;16.10;;;;;;5040010;28;20186;-59
2022/03/13 01:01:38;;;;;;;3.78;1.17;;;25.20;15.00;;;;;;5053833;28;20129;-60
2022/03/13 01:04:05;;;;;;;5.13;1.13;;;25.10;15.20;;;;;;5057171;28;20538;-62
2022/03/13 01:06:31;;;;;;;4.28;1.20;;;25.00;15.70;;;;;;5059252;28;20081;-61
2022/03/13 01:08:58;;;;;;;4.07;1.10;;;25.00;15.30;;;;;;5036891;28;20219;-60
2022/03/13 01:11:24;;;;;;;4.93;1.35;;;24.80;15.20;;;;;;5038529;28;20066;-55
2022/03/13 01:13:51;;;;;;;12.30;1.58;;;24.70;15.60;;;;;;5056285;28;20171;-58
2022/03/13 01:16:27;;;;;;;8.43;1.88;;;24.60;15.50;;;;;;5022542;28;20085;-60
2022/03/13 01:18:58;;;;;;;6.13;2.15;;;24.50;16.10;;;;;;5038409;28;20077;-62
2022/03/13 01:21:26;;;;;;;11.15;2.65;;;24.40;16.30;;;;;;5043027;28;20447;-59
2022/03/13 01:24:15;;;;;;;9.23;2.58;;;24.30;16.40;;;;;;5060416;28;20115;-63
2022/03/13 01:26:42;;;;;;;9.80;3.10;;;24.10;16.40;;;;;;5061120;28;20147;-60
2022/03/13 01:29:11;;;;;;;6.43;1.98;;;24.00;17.00;;;;;;5043450;28;20412;-61
2022/03/13 01:31:40;;;;;;;5.65;1.63;;;23.90;17.10;;;;;;5045233;28;20073;-60
2022/03/13 01:34:13;;;;;;;4.15;1.38;;;23.80;17.10;;;;;;5060020;28;20115;-60
2022/03/13 01:36:40;;;;;;;4.95;1.90;;;23.70;16.50;;;;;;5037145;28;20077;-60
2022/03/13 01:39:07;;;;;;;9.48;2.15;;;23.60;17.10;;;;;;5023422;28;20089;-62
2022/03/13 01:41:35;;;;;;;7.47;1.90;;;23.50;16.60;;;;;;5034637;28;20150;-63
2022/03/13 01:44:03;;;;;;;5.82;1.85;;;23.30;16.70;;;;;;5059426;28;20134;-61
2022/03/13 01:46:29;;;;;;;4.60;1.98;;;23.20;16.60;;;;;;5044942;28;20085;-60
2022/03/13 01:49:07;;;;;;;11.73;2.47;;;23.00;17.00;;;;;;5044989;28;20222;-60
2022/03/13 01:51:35;;;;;;;10.05;2.65;;;22.90;16.60;;;;;;5022507;28;20076;-60
2022/03/13 01:54:07;;;;;;;13.13;2.33;;;22.70;16.80;;;;;;5045739;28;20110;-62
2022/03/13 01:56:35;;;;;;;11.35;2.50;;;22.60;16.90;;;;;;5045756;28;20085;-61
2022/03/13 01:59:04;;;;;;;11.60;2.70;;;22.50;17.40;;;;;;5026168;28;20227;-62
2022/03/13 02:01:31;;;;;;;11.70;2.03;;;22.30;17.70;;;;;;5044136;28;20164;-61
2022/03/13 02:03:57;;;;;;;14.50;2.47;;;22.20;18.20;;;;;;5042113;28;20525;-61
2022/03/13 02:06:24;;;;;;;21.55;3.97;;;22.10;18.60;;;;;;5045502;28;20135;-61
2022/03/13 02:08:51;;;;;;;21.30;4.70;;;22.00;19.40;;;;;;5043967;28;20112;-61
2022/03/13 02:11:19;;;;;;;20.05;4.78;;;21.90;19.30;;;;;;5045262;28;20544;-60
2022/03/13 02:13:48;;;;;;;18.10;5.10;;;21.70;19.50;;;;;;5042741;28;20088;-63
2022/03/13 02:16:15;;;;;;;15.05;5.00;;;21.60;19.40;;;;;;5040461;28;20481;-62
2022/03/13 02:18:46;;;;;;;17.65;4.70;;;21.50;19.50;;;;;;5062780;28;20506;-61
2022/03/13 02:21:13;;;;;;;24.40;6.63;;;21.30;19.60;;;;;;5061034;28;20107;-63
2022/03/13 02:23:39;;;;;;;20.10;6.50;;;21.20;19.80;;;;;;5045101;28;20088;-61
2022/03/13 02:26:07;;;;;;;31.08;7.47;;;21.10;19.80;;;;;;5065086;28;20085;-63
2022/03/13 02:28:37;;;;;;;41.33;8.05;;;21.00;20.30;;;;;;5042319;28;20416;-64
2022/03/13 02:31:10;;;;;;;28.42;8.23;;;20.90;20.70;;;;;;5031320;28;20535;-62
2022/03/13 02:33:38;;;;;;;26.60;7.35;;;20.80;21.20;;;;;;5061777;28;20160;-63
2022/03/13 02:36:12;;;;;;;25.55;7.60;;;20.80;21.10;;;;;;5024485;28;20446;-59
2022/03/13 02:38:39;;;;;;;30.23;9.07;;;20.70;21.90;;;;;;5044170;28;20446;-61
2022/03/13 02:41:06;;;;;;;23.23;7.13;;;20.60;22.10;;;;;;5060969;28;20236;-62
2022/03/13 02:43:32;;;;;;;33.22;9.35;;;20.50;21.90;;;;;;5042113;28;20160;-62
2022/03/13 02:46:00;;;;;;;;;;;20.40;21.30;;;;;;5040347;28;20080;-61
2022/03/13 02:48:26;;;;;;;39.97;10.65;;;20.40;21.60;;;;;;5043753;28;19956;-64
2022/03/13 02:50:52;;;;;;;38.22;10.70;;;20.20;21.70;;;;;;5060295;28;20093;-61
2022/03/13 02:53:19;;;;;;;30.98;11.55;;;20.20;21.80;;;;;;5027249;28;20557;-61
2022/03/13 02:55:45;;;;;;;51.60;12.38;;;20.10;22.10;;;;;;5041056;28;20078;-60
2022/03/13 02:58:12;;;;;;;41.40;12.93;;;20.00;22.10;;;;;;5063607;28;20074;-60
2022/03/13 03:00:41;;;;;;;30.48;12.30;;;20.00;23.10;;;;;;5062500;28;20088;-60
2022/03/13 03:03:08;;;;;;;43.88;12.90;;;19.90;23.10;;;;;;5048644;28;20081;-61
2022/03/13 03:05:35;;;;;;;45.20;14.25;;;19.90;23.40;;;;;;5043524;28;20069;-61
2022/03/13 03:08:02;;;;;;;50.28;14.60;;;19.70;23.50;;;;;;5041993;28;20093;-61
2022/03/13 03:10:28;;;;;;;49.15;16.08;;;19.60;23.60;;;;;;5041173;28;20115;-61
2022/03/13 03:12:54;;;;;;;;;;;19.60;23.70;;;;;;5044579;28;20101;-61
2022/03/13 03:15:21;;;;;;;42.17;13.98;;;19.50;23.80;;;;;;5060501;28;20014;-60
2022/03/13 03:17:48;;;;;;;42.33;14.25;;;19.40;23.50;;;;;;5042456;28;20462;-62
2022/03/13 03:20:15;;;;;;;34.63;13.90;;;19.30;23.50;;;;;;5040200;28;20077;-60
2022/03/13 03:22:41;;;;;;;40.63;14.18;;;19.30;23.50;;;;;;5044068;28;20081;-63
2022/03/13 03:25:07;;;;;;;;;;;19.20;23.70;;;;;;5044155;28;21071;-60
2022/03/13 03:27:34;;;;;;;48.85;14.07;;;19.10;24.00;;;;;;5022087;28;19981;-61
2022/03/13 03:30:01;;;;;;;49.22;14.25;;;19.00;24.20;;;;;;5056397;28;20081;-61
2022/03/13 03:32:28;;;;;;;51.05;16.42;;;19.00;24.50;;;;;;5041467;28;20076;-60
2022/03/13 03:34:54;;;;;;;45.40;16.40;;;18.90;24.60;;;;;;5061520;28;20415;-60
2022/03/13 03:37:21;;;;;;;65.78;19.42;;;18.90;24.80;;;;;;5060134;28;20099;-61
2022/03/13 03:39:47;;;;;;;55.17;17.90;;;18.80;25.00;;;;;;5043596;28;20338;-62
2022/03/13 03:42:13;;;;;;;58.17;20.70;;;18.80;25.20;;;;;;5061023;28;20503;-62
2022/03/13 03:44:39;;;;;;;;;;;18.70;25.80;;;;;;5040937;28;20086;-62
2022/03/13 03:47:06;;;;;;;56.72;24.35;;;18.70;25.70;;;;;;5038190;28;20439;-63
2022/03/13 03:49:34;;;;;;;78.65;31.60;;;18.60;25.70;;;;;;5042362;28;20070;-66
2022/03/13 03:52:00;;;;;;;83.47;41.85;;;18.60;25.80;;;;;;5041530;28;20430;-62
2022/03/13 03:54:27;;;;;;;92.68;42.15;;;18.50;25.60;;;;;;5057391;28;20107;-66
2022/03/13 03:56:53;;;;;;;;;;;18.40;25.70;;;;;;5043176;28;20081;-61
2022/03/13 03:59:20;;;;;;;88.13;44.55;;;18.30;26.00;;;;;;5023427;28;20004;-60
2022/03/13 04:01:46;;;;;;;101.38;46.50;;;18.30;25.80;;;;;;5026839;28;20105;-62
2022/03/13 04:04:13;;;;;;;89.22;47.25;;;18.30;25.90;;;;;;5042299;28;20115;-62
2022/03/13 04:06:40;;;;;;;98.63;50.90;;;18.20;26.10;;;;;;5041815;28;20113;-63
2022/03/13 04:09:09;;;;;;;103.63;51.38;;;18.20;26.10;;;;;;5041854;28;20088;-62
2022/03/13 04:11:36;;;;;;;117.03;51.15;;;18.10;26.30;;;;;;5040974;28;20200;-61
2022/03/13 04:14:04;;;;;;;93.45;47.30;;;18.20;26.90;;;;;;5048534;28;20078;-61
2022/03/13 04:16:30;;;;;;;85.85;42.63;;;18.10;27.00;;;;;;5032484;28;20434;-64
2022/03/13 04:18:57;;;;;;;85.35;36.47;;;18.00;27.00;;;;;;5055430;28;20131;-60
2022/03/13 04:21:23;;;;;;;80.95;35.28;;;18.00;27.00;;;;;;5044327;28;20609;-63
2022/03/13 04:23:50;;;;;;;75.47;34.53;;;18.00;27.10;;;;;;5063843;22;20125;-60
2022/03/13 04:26:17;;;;;;;67.50;34.22;;;17.90;27.20;;;;;;5091664;28;20089;-62
2022/03/13 04:28:44;;;;;;;74.95;37.28;;;17.90;27.20;;;;;;5101344;28;20545;-61
2022/03/13 04:31:13;;;;;;;89.00;39.67;;;17.80;27.40;;;;;;5091539;28;20084;-62
2022/03/13 04:33:40;;;;;;;95.00;41.63;;;17.80;27.40;;;;;;5096260;28;20083;-61
2022/03/13 04:36:10;;;;;;;102.40;43.20;;;17.70;27.60;;;;;;5091951;28;20602;-61
2022/03/13 04:38:37;;;;;;;101.35;41.67;;;17.60;27.70;;;;;;5090775;28;20084;-62
2022/03/13 04:41:04;;;;;;;92.07;40.45;;;17.60;27.80;;;;;;5091164;28;20168;-61
2022/03/13 04:43:30;;;;;;;97.03;42.17;;;17.50;28.00;;;;;;5092925;28;20079;-61
2022/03/13 04:45:57;;;;;;;86.75;40.85;;;17.50;28.00;;;;;;5097559;28;20095;-60
2022/03/13 04:48:23;;;;;;;97.55;43.00;;;17.50;28.00;;;;;;5086407;28;20100;-62
2022/03/13 04:50:49;;;;;;;;;;;17.40;28.10;;;;;;5093823;28;20526;-61
2022/03/13 04:53:16;;;;;;;121.97;40.83;;;17.40;28.40;;;;;;5093118;28;19963;-61
2022/03/13 04:55:43;;;;;;;98.88;43.83;;;17.40;28.50;;;;;;5095952;28;20155;-61
2022/03/13 04:58:09;;;;;;;110.78;46.33;;;17.30;28.50;;;;;;5093598;28;20767;-60
2022/03/13 05:00:38;;;;;;;114.60;43.33;;;17.30;28.90;;;;;;5094112;28;20077;-63
2022/03/13 05:03:08;;;;;;;86.47;40.55;;;17.30;29.80;;;;;;5094332;28;20519;-62
2022/03/13 05:05:34;;;;;;;96.20;41.72;;;17.20;29.20;;;;;;5079486;28;20080;-62
2022/03/13 05:08:04;;;;;;;87.53;38.95;;;17.10;29.00;;;;;;5093873;28;20093;-62
2022/03/13 05:10:36;;;;;;;102.60;38.85;;;17.10;29.00;;;;;;5064832;28;20111;-61
2022/03/13 05:13:07;;;;;;;114.22;40.17;;;17.00;29.00;;;;;;5063816;28;20073;-61
2022/03/13 05:15:35;;;;;;;89.85;37.47;;;17.00;29.10;;;;;;5052402;28;20108;-61
2022/03/13 05:18:02;;;;;;;92.90;36.97;;;17.00;29.10;;;;;;5065664;28;20160;-62
2022/03/13 05:20:29;;;;;;;91.18;35.95;;;17.00;29.10;;;;;;5067143;28;20081;-61
2022/03/13 05:22:55;;;;;;;92.10;39.92;;;16.90;29.20;;;;;;5064831;28;20123;-59
2022/03/13 05:25:25;;;;;;;98.88;39.85;;;16.90;29.30;;;;;;5047846;28;20730;-61
2022/03/13 05:27:53;;;;;;;118.30;44.08;;;16.90;30.10;;;;;;5065178;28;20107;-60
2022/03/13 05:30:20;;;;;;;101.68;42.33;;;16.90;30.00;;;;;;5064020;28;20085;-61
2022/03/13 05:32:48;;;;;;;98.63;41.13;;;16.90;30.60;;;;;;5065958;28;20115;-59
2022/03/13 05:35:16;;;;;;;97.88;40.60;;;16.80;30.10;;;;;;5058336;28;20069;-61
2022/03/13 05:37:43;;;;;;;94.18;38.00;;;16.80;30.10;;;;;;5046036;28;20173;-60
2022/03/13 05:40:14;;;;;;;101.72;37.92;;;16.80;30.00;;;;;;5063199;28;20628;-64
2022/03/13 05:42:46;;;;;;;96.93;34.10;;;16.70;29.80;;;;;;5064899;28;20093;-64
2022/03/13 05:45:18;;;;;;;93.88;37.10;;;16.70;29.60;;;;;;5062087;28;20069;-63
2022/03/13 05:47:49;;;;;;;107.68;41.10;;;16.70;29.80;;;;;;5064175;28;20522;-65
2022/03/13 05:50:18;;;;;;;107.55;43.38;;;16.70;30.10;;;;;;5063488;28;20546;-63
2022/03/13 05:52:45;;;;;;;110.80;41.65;;;16.60;30.20;;;;;;5061608;28;20081;-64
2022/03/13 05:55:13;;;;;;;111.57;42.55;;;16.50;30.50;;;;;;5066058;28;20457;-63
2022/03/13 05:57:39;;;;;;;109.53;42.95;;;16.50;30.70;;;;;;5061614;28;20073;-66
2022/03/13 06:00:09;;;;;;;119.72;44.47;;;16.40;30.90;;;;;;5069176;28;20077;-65
2022/03/13 06:02:40;;;;;;;130.73;47.88;;;16.40;31.00;;;;;;5062423;28;20083;-66
2022/03/13 06:05:11;;;;;;;113.35;46.88;;;16.40;31.70;;;;;;5071018;28;20111;-65
2022/03/13 06:07:38;;;;;;;109.78;46.25;;;16.40;33.20;;;;;;5065052;28;20085;-65
2022/03/13 06:10:06;;;;;;;113.22;45.92;;;16.30;32.40;;;;;;5055929;28;20093;-65
2022/03/13 06:12:32;;;;;;;137.98;48.35;;;16.30;32.20;;;;;;5066489;28;20076;-64
2022/03/13 06:15:00;;;;;;;125.25;48.35;;;16.20;32.00;;;;;;5068216;28;20193;-64
2022/03/13 06:17:27;;;;;;;135.18;51.55;;;16.10;32.20;;;;;;5066347;28;20169;-67
2022/03/13 06:19:58;;;;;;;145.00;51.22;;;16.10;32.30;;;;;;5066060;28;20092;-64
2022/03/13 06:22:25;;;;;;;144.40;50.75;;;16.10;32.70;;;;;;5070493;28;20085;-66
2022/03/13 06:24:52;;;;;;;134.60;46.95;;;16.10;32.90;;;;;;5072634;28;20112;-66
2022/03/13 06:27:19;;;;;;;146.73;48.92;;;16.10;32.80;;;;;;5066324;28;20097;-65
2022/03/13 06:29:45;;;;;;;131.38;45.70;;;16.00;32.30;;;;;;5072742;28;20429;-64
2022/03/13 06:32:12;;;;;;;140.23;49.90;;;16.00;32.10;;;;;;5067013;28;20104;-64
2022/03/13 06:34:38;;;;;;;;;;;16.00;32.60;;;;;;5069294;28;20073;-65
2022/03/13 06:37:05;;;;;;;133.10;46.50;;;15.90;32.60;;;;;;5067588;28;20014;-64
2022/03/13 06:39:32;;;;;;;144.63;49.70;;;15.90;33.50;;;;;;5072672;28;20080;-64
2022/03/13 06:41:58;;;;;;;145.18;49.40;;;15.80;33.80;;;;;;5069057;28;20065;-65
2022/03/13 06:44:24;;;;;;;;;;;15.80;34.20;;;;;;5055893;28;20073;-64
2022/03/13 06:46:51;;;;;;;139.13;50.10;;;15.80;34.20;;;;;;5068698;28;20071;-64
2022/03/13 06:49:17;;;;;;;;;;;15.80;33.80;;;;;;5064149;28;20164;-65
2022/03/13 06:51:43;;;;;;;169.77;51.92;;;15.90;33.00;;;;;;5066715;28;19961;-64
2022/03/13 06:54:10;;;;;;;;;;;16.00;32.30;;;;;;5069851;28;20065;-65
2022/03/13 06:56:38;;;;;;;174.85;53.67;;;16.30;32.00;;;;;;5067645;28;19965;-63
2022/03/13 06:59:05;;;;;;;199.20;54.33;;;16.50;32.00;;;;;;5071861;28;20072;-64
2022/03/13 07:01:37;;;;;;;182.05;56.90;;;16.70;31.90;;;;;;5065298;28;20191;-64
2022/03/13 07:04:04;;;;;;;193.63;56.83;;;16.70;32.10;;;;;;5068148;28;20077;-64
2022/03/13 07:06:32;;;;;;;180.20;52.63;;;16.80;31.40;;;;;;5068906;28;20089;-64
2022/03/13 07:08:59;;;;;;;187.00;51.67;;;16.80;30.90;;;;;;5066863;28;20081;-64
2022/03/13 07:11:33;;;;;;;190.93;53.08;;;16.70;30.80;;;;;;5066049;28;20069;-64
2022/03/13 07:14:02;;;;;;;156.60;51.40;;;16.70;31.20;;;;;;5071264;28;20097;-64
2022/03/13 07:16:28;;;;;;;178.57;53.95;;;16.70;31.70;;;;;;5065319;28;20115;-65
2022/03/13 07:18:54;;;;;;;;;;;16.70;32.20;;;;;;5066586;28;20077;-65
2022/03/13 07:21:20;;;;;;;191.82;56.30;;;16.70;32.30;;;;;;5068297;28;20075;-63
2022/03/13 07:23:47;;;;;;;173.63;54.55;;;16.80;32.20;;;;;;5081815;28;20103;-63
2022/03/13 07:26:14;;;;;;;215.07;57.42;;;16.80;31.80;;;;;;5066643;28;20072;-63
2022/03/13 07:28:40;;;;;;;202.50;54.15;;;16.70;32.00;;;;;;5067980;28;20082;-63
2022/03/13 07:31:06;;;;;;;;;;;16.60;32.50;;;;;;5073003;28;20558;-63
2022/03/13 07:33:33;;;;;;;190.63;55.58;;;16.60;32.40;;;;;;5066252;28;19965;-65
2022/03/13 07:35:59;;;;;;;215.60;58.65;;;16.60;32.40;;;;;;5067851;28;20122;-63
2022/03/13 07:38:27;;;;;;;227.52;56.47;;;16.60;32.50;;;;;;5070422;28;20089;-63
2022/03/13 07:40:53;;;;;;;205.55;56.88;;;16.50;33.20;;;;;;5066754;28;20143;-63
2022/03/13 07:43:19;;;;;;;;;;;16.30;32.90;;;;;;5068542;28;20080;-61
2022/03/13 07:45:45;;;;;;;223.60;61.50;;;16.30;33.10;;;;;;5068622;28;19960;-65
2022/03/13 07:48:11;;;;;;;;;;;16.30;33.20;;;;;;5068955;28;20117;-63
2022/03/13 07:50:38;;;;;;;212.05;56.85;;;16.30;33.10;;;;;;5064207;28;20077;-63
2022/03/13 07:53:05;;;;;;;217.38;55.80;;;16.10;33.00;;;;;;5067859;28;20096;-63
2022/03/13 07:55:31;;;;;;;195.63;54.13;;;16.10;33.40;;;;;;5069043;28;20073;-64
2022/03/13 07:57:58;;;;;;;;;;;16.00;33.70;;;;;;5065897;28;20535;-65
2022/03/13 08:00:24;;;;;;;211.57;57.67;;;16.00;33.70;;;;;;5068322;28;19972;-65
2022/03/13 08:02:53;;;;;;;;;;;15.90;33.80;;;;;;5068744;28;20074;-63
2022/03/13 08:05:23;;;;;;;220.85;61.83;;;15.80;33.60;;;;;;5068805;28;20051;-64
2022/03/13 08:07:52;;;;;;;192.13;56.35;;;15.80;34.20;;;;;;5063189;28;20539;-66
2022/03/13 08:10:23;;;;;;;210.27;58.58;;;15.80;34.40;;;;;;5069817;28;20124;-64
2022/03/13 08:12:53;;;;;;;171.32;56.50;;;15.80;34.00;;;;;;5067519;28;20061;-64
2022/03/13 08:15:20;;;;;;;200.85;59.70;;;15.70;33.90;;;;;;5062015;28;20073;-65
2022/03/13 08:17:46;;;;;;;208.63;61.17;;;15.60;34.10;;;;;;5067581;28;20081;-64
2022/03/13 08:20:13;;;;;;;178.30;58.95;;;15.60;34.10;;;;;;5068508;28;20077;-63
2022/03/13 08:22:40;;;;;;;218.43;63.97;;;15.50;35.00;;;;;;5050451;28;20092;-63
2022/03/13 08:25:07;;;;;;;;;;;15.50;35.20;;;;;;5048208;28;20145;-63
2022/03/13 08:27:34;;;;;;;187.77;59.55;;;15.50;34.70;;;;;;5066093;28;19992;-62
2022/03/13 08:30:01;;;;;;;167.55;56.53;;;15.40;34.80;;;;;;5067230;28;20156;-63
2022/03/13 08:32:28;;;;;;;176.70;58.60;;;15.40;34.50;;;;;;5067158;28;20077;-64
2022/03/13 08:34:54;;;;;;;201.05;60.78;;;15.30;34.40;;;;;;5066502;28;20072;-61
2022/03/13 08:37:21;;;;;;;238.43;60.50;;;15.30;35.10;;;;;;5068262;28;20076;-66
2022/03/13 08:39:47;;;;;;;225.27;64.80;;;15.30;35.30;;;;;;5063491;28;20462;-66
2022/03/13 08:42:14;;;;;;;219.82;61.05;;;15.20;35.20;;;;;;5066420;28;20077;-63
2022/03/13 08:44:40;;;;;;;199.73;59.45;;;15.20;34.60;;;;;;5069899;28;20073;-65
2022/03/13 08:47:07;;;;;;;202.43;62.38;;;15.10;34.40;;;;;;5065413;28;20231;-65
2022/03/13 08:49:33;;;;;;;;;;;15.00;33.60;;;;;;5068045;28;20135;-66
2022/03/13 08:51:59;;;;;;;206.93;60.72;;;15.00;33.70;;;;;;5063895;28;19956;-66
2022/03/13 08:54:25;;;;;;;;;;;15.10;33.80;;;;;;5064808;28;20077;-65
2022/03/13 08:56:51;;;;;;;213.80;63.92;;;15.10;33.50;;;;;;5069835;28;20051;-62
2022/03/13 08:59:21;;;;;;;219.80;66.22;;;15.00;33.90;;;;;;5063541;28;20073;-64
2022/03/13 09:01:48;;;;;;;210.65;64.70;;;14.90;33.90;;;;;;5064571;28;20080;-63
2022/03/13 09:04:14;;;;;;;221.18;64.38;;;14.80;34.00;;;;;;5067175;28;20118;-63
2022/03/13 09:06:43;;;;;;;;;;;14.90;34.10;;;;;;5068411;28;20091;-62
2022/03/13 09:09:10;;;;;;;225.63;66.25;;;14.90;34.30;;;;;;5066446;28;19973;-63
2022/03/13 09:11:37;;;;;;;227.50;64.10;;;14.80;34.10;;;;;;5068797;28;20080;-62
2022/03/13 09:14:05;;;;;;;222.45;67.13;;;14.70;35.10;;;;;;5070850;28;20153;-64
2022/03/13 09:16:38;;;;;;;229.15;70.40;;;14.70;35.40;;;;;;5061380;28;20084;-66
2022/03/13 09:19:05;;;;;;;251.52;72.43;;;14.70;35.10;;;;;;5067715;28;20065;-64
2022/03/13 09:21:34;;;;;;;244.60;73.25;;;14.70;35.70;;;;;;5070003;28;20100;-62
2022/03/13 09:24:01;;;;;;;253.43;72.63;;;14.60;36.00;;;;;;5064974;28;20108;-63
2022/03/13 09:26:28;;;;;;;244.82;71.85;;;14.60;36.40;;;;;;5064753;28;20076;-64
2022/03/13 09:28:54;;;;;;;231.65;71.53;;;14.60;36.20;;;;;;5067849;28;20084;-62
2022/03/13 09:31:20;;;;;;;;;;;14.50;36.10;;;;;;5070250;28;20121;-63
2022/03/13 09:33:47;;;;;;;234.88;72.82;;;14.40;35.60;;;;;;5063735;28;19968;-65
2022/03/13 09:36:13;;;;;;;248.60;75.30;;;14.30;35.70;;;;;;5062874;28;20085;-64
2022/03/13 09:38:40;;;;;;;258.73;76.85;;;14.30;35.90;;;;;;5070314;28;20184;-62
2022/03/13 09:41:06;;;;;;;266.55;75.43;;;14.30;35.90;;;;;;5035951;28;20142;-66
2022/03/13 09:43:32;;;;;;;;;;;14.30;37.00;;;;;;5067644;28;20069;-66
2022/03/13 09:45:59;;;;;;;236.35;71.75;;;14.30;36.80;;;;;;5070229;28;19979;-63
2022/03/13 09:48:25;;;;;;;;;;;14.20;36.20;;;;;;5068173;28;20089;-63
2022/03/13 09:50:53;;;;;;;244.70;74.80;;;14.20;36.50;;;;;;5066571;28;19963;-65
2022/03/13 09:53:19;;;;;;;244.73;73.13;;;14.20;36.30;;;;;;5068316;28;20459;-63
2022/03/13 09:55:46;;;;;;;239.23;72.93;;;14.10;36.40;;;;;;5066884;28;20077;-64
2022/03/13 09:58:12;;;;;;;;;;;14.10;36.30;;;;;;5070377;28;20527;-63
2022/03/13 10:00:39;;;;;;;243.75;72.30;;;14.00;36.40;;;;;;5072500;28;20060;-63
2022/03/13 10:03:08;;;;;;;233.73;72.95;;;13.90;36.60;;;;;;5067308;28;20065;-63
2022/03/13 10:05:48;;;;;;;230.50;72.78;;;13.90;37.00;;;;;;5069392;28;20638;-63
2022/03/13 10:08:16;;;;;;;239.45;76.13;;;14.00;37.50;;;;;;5070108;28;20550;-65
2022/03/13 10:10:50;;;;;;;249.07;74.57;;;14.00;38.30;;;;;;5067224;28;20428;-65
2022/03/13 10:13:32;;;;;;;237.77;71.38;;;14.00;38.50;;;;;;5069886;28;20561;-64
2022/03/13 10:15:59;;;;;;;248.05;74.43;;;14.00;38.50;;;;;;5069010;28;20073;-63
2022/03/13 10:18:25;;;;;;;;;;;14.00;38.40;;;;;;5069649;28;20079;-65
2022/03/13 10:20:53;;;;;;;237.77;73.90;;;14.00;38.70;;;;;;5069284;28;19961;-64
2022/03/13 10:23:20;;;;;;;256.90;79.55;;;13.90;38.40;;;;;;5069657;28;20091;-64
2022/03/13 10:25:52;;;;;;;236.55;77.15;;;13.90;38.90;;;;;;5070352;28;20104;-66
2022/03/13 10:28:32;;;;;;;252.13;75.30;;;13.90;38.90;;;;;;5066893;28;20089;-66
2022/03/13 10:30:59;;;;;;;230.60;78.07;;;13.80;38.70;;;;;;5067908;28;20069;-65
2022/03/13 10:33:44;;;;;;;242.68;76.63;;;13.80;38.40;;;;;;5070354;28;20077;-66
2022/03/13 10:36:22;;;;;;;256.70;77.95;;;13.70;38.40;;;;;;5069766;28;20084;-66
2022/03/13 10:38:49;;;;;;;265.38;79.10;;;13.70;39.20;;;;;;5049646;28;20213;-64
2022/03/13 10:41:17;;;;;;;239.07;74.70;;;13.70;39.70;;;;;;5068721;28;20085;-65
2022/03/13 10:44:05;;;;;;;236.00;75.35;;;13.60;40.20;;;;;;5068753;28;20080;-65
2022/03/13 10:46:36;;;;;;;241.30;77.25;;;13.60;39.60;;;;;;5069230;28;20126;-65
2022/03/13 10:49:07;;;;;;;217.10;72.70;;;13.60;40.20;;;;;;5069190;28;20073;-65
2022/03/13 10:51:46;;;;;;;238.30;75.38;;;13.60;39.90;;;;;;5065620;28;20523;-64
2022/03/13 10:54:29;;;;;;;257.85;77.18;;;13.60;40.20;;;;;;5065616;28;20069;-64
2022/03/13 10:57:10;;;;;;;212.68;71.43;;;13.40;39.60;;;;;;5072403;28;20069;-66
2022/03/13 10:59:39;;;;;;;193.30;60.45;;;13.30;38.90;;;;;;5068338;28;20100;-65
2022/03/13 11:02:22;;;;;;;215.13;65.93;;;13.30;36.90;;;;;;5065732;28;20125;-63
2022/03/13 11:04:54;;;;;;;208.05;65.72;;;13.20;37.50;;;;;;5067897;28;20073;-63
2022/03/13 11:07:22;;;;;;;196.52;59.55;;;13.20;38.30;;;;;;5064693;28;20170;-63
2022/03/13 11:09:49;;;;;;;216.55;62.58;;;13.20;37.70;;;;;;5068154;28;20488;-64
2022/03/13 11:12:20;;;;;;;194.82;62.28;;;13.20;38.20;;;;;;5066635;28;20433;-64
2022/03/13 11:14:52;;;;;;;201.75;62.30;;;13.10;37.50;;;;;;5067570;28;20131;-66
2022/03/13 11:17:34;;;;;;;170.55;58.58;;;13.20;37.80;;;;;;5067280;28;20521;-65
2022/03/13 11:20:03;;;;;;;180.35;60.55;;;13.10;37.50;;;;;;5066242;28;20528;-66
2022/03/13 11:22:30;;;;;;;167.00;56.72;;;13.00;37.40;;;;;;5063027;28;20164;-64
2022/03/13 11:25:01;;;;;;;200.77;58.65;;;13.00;37.70;;;;;;5066314;28;20171;-64
2022/03/13 11:27:29;;;;;;;198.20;60.65;;;13.10;37.90;;;;;;5070444;28;20097;-63
2022/03/13 11:29:57;;;;;;;193.88;59.63;;;13.10;37.80;;;;;;5065790;28;20602;-64
2022/03/13 11:32:37;;;;;;;156.80;55.80;;;13.00;38.00;;;;;;5068295;28;20080;-64
2022/03/13 11:35:18;;;;;;;163.13;56.25;;;13.00;38.40;;;;;;5070509;28;20073;-64
2022/03/13 11:37:53;;;;;;;182.50;56.00;;;13.00;37.70;;;;;;5066958;28;20106;-64
2022/03/13 11:40:33;;;;;;;181.13;57.70;;;13.00;38.30;;;;;;5068872;28;20644;-63
2022/03/13 11:43:13;;;;;;;154.75;53.55;;;13.00;39.20;;;;;;5070013;28;20068;-63
2022/03/13 11:45:42;;;;;;;176.02;54.08;;;13.00;38.70;;;;;;5066938;28;20558;-64
2022/03/13 11:48:18;;;;;;;180.38;56.08;;;12.90;38.10;;;;;;5069266;28;20099;-63
2022/03/13 11:50:54;;;;;;;175.13;57.15;;;12.90;38.10;;;;;;5068205;28;20117;-63
2022/03/13 11:53:23;;;;;;;179.75;56.20;;;12.90;38.70;;;;;;5065642;28;20143;-62
2022/03/13 11:56:09;;;;;;;190.23;54.80;;;13.00;39.20;;;;;;5063526;28;20115;-65
2022/03/13 11:58:46;;;;;;;168.80;52.50;;;13.00;40.80;;;;;;5070791;28;20096;-63
2022/03/13 12:01:18;;;;;;;164.02;53.20;;;13.00;39.70;;;;;;5062798;28;20317;-62
2022/03/13 12:04:03;;;;;;;172.32;51.78;;;12.90;39.00;;;;;;5066846;28;20093;-65
2022/03/13 12:06:49;;;;;;;167.60;50.92;;;12.90;39.80;;;;;;5069295;28;20080;-63
2022/03/13 12:09:16;;;;;;;139.02;50.65;;;12.90;40.10;;;;;;5065530;28;20558;-63
2022/03/13 12:12:01;;;;;;;155.32;50.45;;;12.90;39.90;;;;;;5070080;28;20103;-64
2022/03/13 12:15:02;;;;;;;149.18;49.45;;;12.80;39.60;;;;;;5062984;28;20076;-62
2022/03/13 12:17:42;;;;;;;164.80;50.75;;;12.80;39.70;;;;;;5051545;28;20080;-64
2022/03/13 12:20:19;;;;;;;151.73;47.15;;;12.70;39.30;;;;;;5067947;28;20171;-62
2022/03/13 12:22:53;;;;;;;;;;;12.70;39.50;;;;;;5067381;28;20069;-62
2022/03/13 12:25:27;;;;;;;136.52;48.28;;;12.70;39.80;;;;;;5067711;28;20055;-62
2022/03/13 12:27:55;;;;;;;126.53;44.92;;;12.60;39.80;;;;;;5066850;28;20507;-63
2022/03/13 12:30:29;;;;;;;156.48;48.50;;;12.60;40.00;;;;;;5065769;28;20068;-65
2022/03/13 12:33:00;;;;;;;154.48;48.83;;;12.60;40.40;;;;;;5061932;28;20172;-65
2022/03/13 12:35:28;;;;;;;134.02;46.60;;;12.70;41.30;;;;;;5066360;28;20112;-63
2022/03/13 12:37:56;;;;;;;134.60;46.38;;;12.70;41.10;;;;;;5069018;28;20077;-63
2022/03/13 12:40:24;;;;;;;151.30;44.53;;;12.60;41.00;;;;;;5064484;28;20157;-63
2022/03/13 12:42:56;;;;;;;124.18;37.58;;;12.50;40.40;;;;;;5068441;28;20088;-65